Overview Statistics Trail Chart Weather Telemetry Raw packets
 

This is the latest recevied weather packets stored in our database for station/object K7DC. If no packets are shown the sender has not sent any weather packets the latest 10 day(s).

<< 1 2 3 4 5 6 7 >>
Time Temp. Humidity Pressure Rain* Wind** Luminosity Snow
1788627736 35° C 32% 1017.2 hPa 0 mm - 736 W/m² -
1788627435 35° C 33% 1017.2 hPa 0 mm - 653 W/m² -
1788627131 35.56° C 33% 1017 hPa 0 mm - 598 W/m² -
1788626825 35.56° C 33% 1017.2 hPa 0 mm - 577 W/m² -
1788626525 35° C 34% 1017.2 hPa 0 mm - 659 W/m² -
1788626221 33.89° C 37% 1017.3 hPa 0 mm - 642 W/m² -
1788625917 34.44° C 36% 1017.2 hPa 0 mm - 481 W/m² -
1788625613 35° C 37% 1017.6 hPa 0 mm - 533 W/m² -
1788625312 34.44° C 37% 1017.2 hPa 0 mm - 495 W/m² -
1788625007 33.89° C 40% 1017.3 hPa 0 mm - 554 W/m² -
1788624705 34.44° C 36% 1017.3 hPa 0 mm - 550 W/m² -
1788624404 33.89° C 36% 1017.3 hPa 0 mm - 352 W/m² -
1788624104 32.78° C 38% 1017.3 hPa 0 mm - 452 W/m² -
1788623798 31.67° C 44% 1017.6 hPa 0 mm - 518 W/m² -
1788623498 31.67° C 46% 1017.3 hPa 0 mm - 493 W/m² -
1788623197 31.11° C 47% 1017.3 hPa 0 mm - 392 W/m² -
1788622893 31.11° C 49% 1017.2 hPa 0 mm - 443 W/m² -
1788622589 31.11° C 49% 1017.3 hPa 0 mm - 400 W/m² -
1788622284 31.11° C 49% 1017.2 hPa 0 mm - 399 W/m² -
1788621979 31.11° C 50% 1017.2 hPa 0 mm - 342 W/m² -
1788621674 30.56° C 52% 1017.1 hPa 0 mm - 375 W/m² -
1788621369 30.56° C 51% 1017.2 hPa 0 mm - 345 W/m² -
1788621064 30° C 52% 1017.4 hPa 0 mm - 332 W/m² -
1788620759 30° C 53% 1017.2 hPa 0 mm - 68 W/m² -
1788620458 29.44° C 54% 1017 hPa 0 mm - 278 W/m² -

* Rain latest hour (hover to see other rain measurements)
** Current wind speed in m/s (hover to see current wind gust speed)